sensor_id;sensor_type;location;lat;lon;timestamp;temperature;humidity
4312;DHT22;2169;49.086;9.284;2022-11-15T00:02:00;12.20;66.20
4312;DHT22;2169;49.086;9.284;2022-11-15T00:04:29;12.20;66.10
4312;DHT22;2169;49.086;9.284;2022-11-15T00:06:56;12.20;66.10
4312;DHT22;2169;49.086;9.284;2022-11-15T00:09:23;12.20;66.10
4312;DHT22;2169;49.086;9.284;2022-11-15T00:11:51;12.20;66.10
4312;DHT22;2169;49.086;9.284;2022-11-15T00:14:19;12.20;66.20
4312;DHT22;2169;49.086;9.284;2022-11-15T00:16:46;12.20;66.20
4312;DHT22;2169;49.086;9.284;2022-11-15T00:19:12;12.20;66.20
4312;DHT22;2169;49.086;9.284;2022-11-15T00:21:39;12.20;66.10
4312;DHT22;2169;49.086;9.284;2022-11-15T00:24:06;12.20;66.20
4312;DHT22;2169;49.086;9.284;2022-11-15T00:26:33;12.20;66.10
4312;DHT22;2169;49.086;9.284;2022-11-15T00:29:00;12.20;66.10
4312;DHT22;2169;49.086;9.284;2022-11-15T00:31:28;12.20;66.20
4312;DHT22;2169;49.086;9.284;2022-11-15T00:33:55;12.20;66.20
4312;DHT22;2169;49.086;9.284;2022-11-15T00:36:22;12.20;66.20
4312;DHT22;2169;49.086;9.284;2022-11-15T00:38:48;12.20;66.30
4312;DHT22;2169;49.086;9.284;2022-11-15T00:41:15;12.20;66.40
4312;DHT22;2169;49.086;9.284;2022-11-15T00:43:42;12.20;66.40
4312;DHT22;2169;49.086;9.284;2022-11-15T00:46:09;12.20;66.50
4312;DHT22;2169;49.086;9.284;2022-11-15T00:48:37;12.20;66.50
4312;DHT22;2169;49.086;9.284;2022-11-15T00:51:05;12.20;66.50
4312;DHT22;2169;49.086;9.284;2022-11-15T00:53:31;12.20;66.60
4312;DHT22;2169;49.086;9.284;2022-11-15T00:55:58;12.20;66.70
4312;DHT22;2169;49.086;9.284;2022-11-15T00:58:25;12.20;66.80
4312;DHT22;2169;49.086;9.284;2022-11-15T01:00:52;12.20;66.80
4312;DHT22;2169;49.086;9.284;2022-11-15T01:03:19;12.20;66.90
4312;DHT22;2169;49.086;9.284;2022-11-15T01:05:47;12.10;66.80
4312;DHT22;2169;49.086;9.284;2022-11-15T01:08:15;12.10;66.90
4312;DHT22;2169;49.086;9.284;2022-11-15T01:10:42;12.10;66.90
4312;DHT22;2169;49.086;9.284;2022-11-15T01:13:09;12.10;67.00
4312;DHT22;2169;49.086;9.284;2022-11-15T01:15:39;12.00;66.90
4312;DHT22;2169;49.086;9.284;2022-11-15T01:18:06;12.00;67.00
4312;DHT22;2169;49.086;9.284;2022-11-15T01:20:33;12.00;67.00
4312;DHT22;2169;49.086;9.284;2022-11-15T01:23:01;11.90;66.90
4312;DHT22;2169;49.086;9.284;2022-11-15T01:25:28;11.90;67.00
4312;DHT22;2169;49.086;9.284;2022-11-15T01:27:55;11.90;67.00
4312;DHT22;2169;49.086;9.284;2022-11-15T01:30:22;11.80;66.90
4312;DHT22;2169;49.086;9.284;2022-11-15T01:32:48;11.70;66.90
4312;DHT22;2169;49.086;9.284;2022-11-15T01:35:15;11.70;67.00
4312;DHT22;2169;49.086;9.284;2022-11-15T01:37:42;11.60;66.90
4312;DHT22;2169;49.086;9.284;2022-11-15T01:40:10;11.60;66.90
4312;DHT22;2169;49.086;9.284;2022-11-15T01:42:38;11.60;66.90
4312;DHT22;2169;49.086;9.284;2022-11-15T01:45:05;11.50;66.90
4312;DHT22;2169;49.086;9.284;2022-11-15T01:47:36;11.40;66.80
4312;DHT22;2169;49.086;9.284;2022-11-15T01:50:06;11.40;66.80
4312;DHT22;2169;49.086;9.284;2022-11-15T01:52:35;11.30;66.80
4312;DHT22;2169;49.086;9.284;2022-11-15T01:55:06;11.30;66.80
4312;DHT22;2169;49.086;9.284;2022-11-15T01:57:36;11.20;66.80
4312;DHT22;2169;49.086;9.284;2022-11-15T02:00:05;11.20;66.70
4312;DHT22;2169;49.086;9.284;2022-11-15T02:02:32;11.10;66.70
4312;DHT22;2169;49.086;9.284;2022-11-15T02:05:00;11.00;66.70
4312;DHT22;2169;49.086;9.284;2022-11-15T02:07:26;11.00;66.80
4312;DHT22;2169;49.086;9.284;2022-11-15T02:09:55;10.90;66.80
4312;DHT22;2169;49.086;9.284;2022-11-15T02:12:24;10.90;66.90
4312;DHT22;2169;49.086;9.284;2022-11-15T02:14:53;10.80;66.90
4312;DHT22;2169;49.086;9.284;2022-11-15T02:17:34;10.80;67.00
4312;DHT22;2169;49.086;9.284;2022-11-15T02:20:21;10.80;67.00
4312;DHT22;2169;49.086;9.284;2022-11-15T02:23:13;10.70;67.00
4312;DHT22;2169;49.086;9.284;2022-11-15T02:25:56;10.70;67.00
4312;DHT22;2169;49.086;9.284;2022-11-15T02:28:48;10.70;67.10
4312;DHT22;2169;49.086;9.284;2022-11-15T02:31:24;10.60;67.10
4312;DHT22;2169;49.086;9.284;2022-11-15T02:34:01;10.60;67.20
4312;DHT22;2169;49.086;9.284;2022-11-15T02:36:41;10.60;67.20
4312;DHT22;2169;49.086;9.284;2022-11-15T02:39:17;10.50;67.20
4312;DHT22;2169;49.086;9.284;2022-11-15T02:41:49;10.50;67.30
4312;DHT22;2169;49.086;9.284;2022-11-15T02:44:21;10.40;67.20
4312;DHT22;2169;49.086;9.284;2022-11-15T02:46:51;10.40;67.30
4312;DHT22;2169;49.086;9.284;2022-11-15T02:49:37;10.40;67.40
4312;DHT22;2169;49.086;9.284;2022-11-15T02:52:05;10.30;67.30
4312;DHT22;2169;49.086;9.284;2022-11-15T02:54:33;10.30;67.40
4312;DHT22;2169;49.086;9.284;2022-11-15T02:57:03;10.30;67.50
4312;DHT22;2169;49.086;9.284;2022-11-15T03:00:02;10.20;67.40
4312;DHT22;2169;49.086;9.284;2022-11-15T03:02:58;10.20;67.50
4312;DHT22;2169;49.086;9.284;2022-11-15T03:05:34;10.20;67.60
4312;DHT22;2169;49.086;9.284;2022-11-15T03:08:06;10.10;67.60
4312;DHT22;2169;49.086;9.284;2022-11-15T03:10:42;10.20;67.70
4312;DHT22;2169;49.086;9.284;2022-11-15T03:13:21;10.10;67.70
4312;DHT22;2169;49.086;9.284;2022-11-15T03:15:56;10.10;67.80
4312;DHT22;2169;49.086;9.284;2022-11-15T03:18:30;10.10;67.80
4312;DHT22;2169;49.086;9.284;2022-11-15T03:21:01;10.00;67.90
4312;DHT22;2169;49.086;9.284;2022-11-15T03:23:31;10.00;68.00
4312;DHT22;2169;49.086;9.284;2022-11-15T03:25:59;10.00;68.10
4312;DHT22;2169;49.086;9.284;2022-11-15T03:28:32;10.00;68.20
4312;DHT22;2169;49.086;9.284;2022-11-15T03:31:02;10.00;68.40
4312;DHT22;2169;49.086;9.284;2022-11-15T03:33:53;9.90;69.30
4312;DHT22;2169;49.086;9.284;2022-11-15T03:36:22;9.90;69.50
4312;DHT22;2169;49.086;9.284;2022-11-15T03:38:51;9.90;69.60
4312;DHT22;2169;49.086;9.284;2022-11-15T03:41:23;9.90;69.70
4312;DHT22;2169;49.086;9.284;2022-11-15T03:43:54;9.90;69.70
4312;DHT22;2169;49.086;9.284;2022-11-15T03:46:26;9.90;69.80
4312;DHT22;2169;49.086;9.284;2022-11-15T03:49:00;9.90;69.80
4312;DHT22;2169;49.086;9.284;2022-11-15T03:51:29;9.90;69.90
4312;DHT22;2169;49.086;9.284;2022-11-15T03:53:56;9.80;69.80
4312;DHT22;2169;49.086;9.284;2022-11-15T03:56:23;9.80;69.90
4312;DHT22;2169;49.086;9.284;2022-11-15T03:58:50;9.80;69.90
4312;DHT22;2169;49.086;9.284;2022-11-15T04:01:17;9.80;69.90
4312;DHT22;2169;49.086;9.284;2022-11-15T04:03:43;9.70;69.80
4312;DHT22;2169;49.086;9.284;2022-11-15T04:06:12;9.70;69.90
4312;DHT22;2169;49.086;9.284;2022-11-15T04:08:38;9.70;69.90
4312;DHT22;2169;49.086;9.284;2022-11-15T04:11:05;9.60;69.90
4312;DHT22;2169;49.086;9.284;2022-11-15T04:13:32;9.60;69.90
4312;DHT22;2169;49.086;9.284;2022-11-15T04:15:59;9.60;70.00
4312;DHT22;2169;49.086;9.284;2022-11-15T04:18:25;9.60;70.00
4312;DHT22;2169;49.086;9.284;2022-11-15T04:20:52;9.60;70.10
4312;DHT22;2169;49.086;9.284;2022-11-15T04:23:38;9.50;70.00
4312;DHT22;2169;49.086;9.284;2022-11-15T04:26:25;9.50;70.20
4312;DHT22;2169;49.086;9.284;2022-11-15T04:28:52;9.50;70.20
4312;DHT22;2169;49.086;9.284;2022-11-15T04:31:36;9.50;70.30
4312;DHT22;2169;49.086;9.284;2022-11-15T04:34:03;9.50;70.30
4312;DHT22;2169;49.086;9.284;2022-11-15T04:36:30;9.50;70.40
4312;DHT22;2169;49.086;9.284;2022-11-15T04:39:15;9.50;70.50
4312;DHT22;2169;49.086;9.284;2022-11-15T04:41:42;9.50;70.60
4312;DHT22;2169;49.086;9.284;2022-11-15T04:44:09;9.50;70.60
4312;DHT22;2169;49.086;9.284;2022-11-15T04:46:36;9.50;70.70
4312;DHT22;2169;49.086;9.284;2022-11-15T04:49:03;9.50;70.80
4312;DHT22;2169;49.086;9.284;2022-11-15T04:51:29;9.50;70.90
4312;DHT22;2169;49.086;9.284;2022-11-15T04:53:56;9.50;70.90
4312;DHT22;2169;49.086;9.284;2022-11-15T04:56:26;9.50;71.00
4312;DHT22;2169;49.086;9.284;2022-11-15T04:58:53;9.50;71.10
4312;DHT22;2169;49.086;9.284;2022-11-15T05:01:20;9.50;71.20
4312;DHT22;2169;49.086;9.284;2022-11-15T05:03:47;9.50;71.20
4312;DHT22;2169;49.086;9.284;2022-11-15T05:06:31;9.50;71.30
4312;DHT22;2169;49.086;9.284;2022-11-15T05:08:58;9.50;71.40
4312;DHT22;2169;49.086;9.284;2022-11-15T05:11:26;9.50;71.40
4312;DHT22;2169;49.086;9.284;2022-11-15T05:13:53;9.50;71.50
4312;DHT22;2169;49.086;9.284;2022-11-15T05:16:20;9.50;71.50
4312;DHT22;2169;49.086;9.284;2022-11-15T05:18:50;9.50;71.60
4312;DHT22;2169;49.086;9.284;2022-11-15T05:21:17;9.50;71.70
4312;DHT22;2169;49.086;9.284;2022-11-15T05:23:44;9.50;71.80
4312;DHT22;2169;49.086;9.284;2022-11-15T05:26:11;9.50;71.90
4312;DHT22;2169;49.086;9.284;2022-11-15T05:28:39;9.50;71.90
4312;DHT22;2169;49.086;9.284;2022-11-15T05:31:07;9.50;72.70
4312;DHT22;2169;49.086;9.284;2022-11-15T05:33:35;9.50;72.00
4312;DHT22;2169;49.086;9.284;2022-11-15T05:36:06;9.50;72.10
4312;DHT22;2169;49.086;9.284;2022-11-15T05:38:34;9.50;72.10
4312;DHT22;2169;49.086;9.284;2022-11-15T05:41:02;9.50;72.20
4312;DHT22;2169;49.086;9.284;2022-11-15T05:43:31;9.50;72.20
4312;DHT22;2169;49.086;9.284;2022-11-15T05:46:01;9.40;72.10
4312;DHT22;2169;49.086;9.284;2022-11-15T05:48:29;9.50;72.20
4312;DHT22;2169;49.086;9.284;2022-11-15T05:50:56;9.40;72.10
4312;DHT22;2169;49.086;9.284;2022-11-15T05:53:24;9.40;72.10
4312;DHT22;2169;49.086;9.284;2022-11-15T05:55:52;9.30;72.00
4312;DHT22;2169;49.086;9.284;2022-11-15T05:58:21;9.30;72.10
4312;DHT22;2169;49.086;9.284;2022-11-15T06:00:48;9.30;72.00
4312;DHT22;2169;49.086;9.284;2022-11-15T06:03:16;9.20;72.00
4312;DHT22;2169;49.086;9.284;2022-11-15T06:05:43;9.20;72.00
4312;DHT22;2169;49.086;9.284;2022-11-15T06:08:10;9.20;72.00
4312;DHT22;2169;49.086;9.284;2022-11-15T06:10:37;9.10;72.00
4312;DHT22;2169;49.086;9.284;2022-11-15T06:13:04;9.10;72.00
4312;DHT22;2169;49.086;9.284;2022-11-15T06:15:32;9.10;72.00
4312;DHT22;2169;49.086;9.284;2022-11-15T06:17:59;9.10;72.00
4312;DHT22;2169;49.086;9.284;2022-11-15T06:20:28;9.10;72.10
4312;DHT22;2169;49.086;9.284;2022-11-15T06:22:58;9.00;72.10
4312;DHT22;2169;49.086;9.284;2022-11-15T06:25:25;9.10;72.20
4312;DHT22;2169;49.086;9.284;2022-11-15T06:27:52;9.00;72.10
4312;DHT22;2169;49.086;9.284;2022-11-15T06:30:19;9.00;72.20
4312;DHT22;2169;49.086;9.284;2022-11-15T06:32:46;9.00;72.20
4312;DHT22;2169;49.086;9.284;2022-11-15T06:35:13;9.00;72.20
4312;DHT22;2169;49.086;9.284;2022-11-15T06:37:42;8.90;72.20
4312;DHT22;2169;49.086;9.284;2022-11-15T06:40:10;8.90;72.20
4312;DHT22;2169;49.086;9.284;2022-11-15T06:42:37;8.90;72.20
4312;DHT22;2169;49.086;9.284;2022-11-15T06:45:04;8.90;72.30
4312;DHT22;2169;49.086;9.284;2022-11-15T06:47:31;8.90;72.30
4312;DHT22;2169;49.086;9.284;2022-11-15T06:49:58;8.90;72.30
4312;DHT22;2169;49.086;9.284;2022-11-15T06:52:25;8.80;72.20
4312;DHT22;2169;49.086;9.284;2022-11-15T06:54:53;8.80;72.20
4312;DHT22;2169;49.086;9.284;2022-11-15T06:57:20;8.90;72.40
4312;DHT22;2169;49.086;9.284;2022-11-15T06:59:47;8.80;72.30
4312;DHT22;2169;49.086;9.284;2022-11-15T07:02:14;8.80;72.30
4312;DHT22;2169;49.086;9.284;2022-11-15T07:04:40;8.80;72.30
4312;DHT22;2169;49.086;9.284;2022-11-15T07:07:07;8.80;72.40
4312;DHT22;2169;49.086;9.284;2022-11-15T07:09:35;8.70;72.30
4312;DHT22;2169;49.086;9.284;2022-11-15T07:12:03;8.70;72.30
4312;DHT22;2169;49.086;9.284;2022-11-15T07:14:30;8.70;72.40
4312;DHT22;2169;49.086;9.284;2022-11-15T07:16:57;8.70;72.40
4312;DHT22;2169;49.086;9.284;2022-11-15T07:19:24;8.70;72.30
4312;DHT22;2169;49.086;9.284;2022-11-15T07:21:51;8.70;72.50
4312;DHT22;2169;49.086;9.284;2022-11-15T07:24:17;8.70;72.50
4312;DHT22;2169;49.086;9.284;2022-11-15T07:26:44;8.70;72.60
4312;DHT22;2169;49.086;9.284;2022-11-15T07:29:12;8.70;72.60
4312;DHT22;2169;49.086;9.284;2022-11-15T07:31:45;8.70;72.60
4312;DHT22;2169;49.086;9.284;2022-11-15T07:34:12;8.70;72.60
4312;DHT22;2169;49.086;9.284;2022-11-15T07:36:39;8.70;72.60
4312;DHT22;2169;49.086;9.284;2022-11-15T07:39:05;8.70;72.70
4312;DHT22;2169;49.086;9.284;2022-11-15T07:41:32;8.70;72.70
4312;DHT22;2169;49.086;9.284;2022-11-15T07:43:59;8.70;72.80
4312;DHT22;2169;49.086;9.284;2022-11-15T07:46:28;8.70;73.00
4312;DHT22;2169;49.086;9.284;2022-11-15T07:48:55;8.70;72.90
4312;DHT22;2169;49.086;9.284;2022-11-15T07:51:22;8.70;72.90
4312;DHT22;2169;49.086;9.284;2022-11-15T07:53:48;8.80;73.10
4312;DHT22;2169;49.086;9.284;2022-11-15T07:56:15;8.80;73.10
4312;DHT22;2169;49.086;9.284;2022-11-15T07:58:48;8.80;73.10
4312;DHT22;2169;49.086;9.284;2022-11-15T08:01:15;8.80;73.20
4312;DHT22;2169;49.086;9.284;2022-11-15T08:03:43;8.80;73.30
4312;DHT22;2169;49.086;9.284;2022-11-15T08:06:10;8.90;73.40
4312;DHT22;2169;49.086;9.284;2022-11-15T08:08:37;8.90;73.50
4312;DHT22;2169;49.086;9.284;2022-11-15T08:11:04;9.00;73.60
4312;DHT22;2169;49.086;9.284;2022-11-15T08:13:40;9.00;73.60
4312;DHT22;2169;49.086;9.284;2022-11-15T08:16:08;9.10;73.80
4312;DHT22;2169;49.086;9.284;2022-11-15T08:18:34;9.10;73.90
4312;DHT22;2169;49.086;9.284;2022-11-15T08:21:03;9.20;74.00
4312;DHT22;2169;49.086;9.284;2022-11-15T08:23:33;9.20;74.00
4312;DHT22;2169;49.086;9.284;2022-11-15T08:26:01;9.30;74.10
4312;DHT22;2169;49.086;9.284;2022-11-15T08:28:28;9.30;74.20
4312;DHT22;2169;49.086;9.284;2022-11-15T08:30:55;9.40;74.30
4312;DHT22;2169;49.086;9.284;2022-11-15T08:33:22;9.40;74.30
4312;DHT22;2169;49.086;9.284;2022-11-15T08:35:49;9.50;74.40
4312;DHT22;2169;49.086;9.284;2022-11-15T08:38:17;9.50;74.40
4312;DHT22;2169;49.086;9.284;2022-11-15T08:40:44;9.50;74.50
4312;DHT22;2169;49.086;9.284;2022-11-15T08:43:10;9.60;74.60
4312;DHT22;2169;49.086;9.284;2022-11-15T08:45:38;9.60;74.70
4312;DHT22;2169;49.086;9.284;2022-11-15T08:48:05;9.70;74.80
4312;DHT22;2169;49.086;9.284;2022-11-15T08:50:37;9.80;74.90
4312;DHT22;2169;49.086;9.284;2022-11-15T08:53:05;9.90;74.90
4312;DHT22;2169;49.086;9.284;2022-11-15T08:55:36;9.90;74.90
4312;DHT22;2169;49.086;9.284;2022-11-15T08:58:03;10.00;73.90
4312;DHT22;2169;49.086;9.284;2022-11-15T09:00:30;10.10;74.00
4312;DHT22;2169;49.086;9.284;2022-11-15T09:03:01;10.20;74.10
4312;DHT22;2169;49.086;9.284;2022-11-15T09:05:29;10.30;74.20
4312;DHT22;2169;49.086;9.284;2022-11-15T09:07:56;10.40;74.30
4312;DHT22;2169;49.086;9.284;2022-11-15T09:10:24;10.50;74.40
4312;DHT22;2169;49.086;9.284;2022-11-15T09:12:52;10.60;74.40
4312;DHT22;2169;49.086;9.284;2022-11-15T09:15:22;10.70;74.50
4312;DHT22;2169;49.086;9.284;2022-11-15T09:17:49;10.80;74.50
4312;DHT22;2169;49.086;9.284;2022-11-15T09:20:16;10.90;74.50
4312;DHT22;2169;49.086;9.284;2022-11-15T09:22:42;11.00;74.50
4312;DHT22;2169;49.086;9.284;2022-11-15T09:25:09;11.10;74.50
4312;DHT22;2169;49.086;9.284;2022-11-15T09:27:36;11.30;74.50
4312;DHT22;2169;49.086;9.284;2022-11-15T09:30:06;11.40;74.40
4312;DHT22;2169;49.086;9.284;2022-11-15T09:32:33;11.50;74.40
4312;DHT22;2169;49.086;9.284;2022-11-15T09:34:59;11.60;74.30
4312;DHT22;2169;49.086;9.284;2022-11-15T09:37:26;11.70;74.20
4312;DHT22;2169;49.086;9.284;2022-11-15T09:39:55;11.80;74.10
4312;DHT22;2169;49.086;9.284;2022-11-15T09:42:45;11.90;74.00
4312;DHT22;2169;49.086;9.284;2022-11-15T09:45:22;12.00;73.90
4312;DHT22;2169;49.086;9.284;2022-11-15T09:48:06;12.10;73.80
4312;DHT22;2169;49.086;9.284;2022-11-15T09:50:39;12.20;73.60
4312;DHT22;2169;49.086;9.284;2022-11-15T09:53:12;12.30;73.60
4312;DHT22;2169;49.086;9.284;2022-11-15T09:55:47;12.40;73.50
4312;DHT22;2169;49.086;9.284;2022-11-15T09:58:26;12.40;73.20
4312;DHT22;2169;49.086;9.284;2022-11-15T10:00:59;12.50;73.20
4312;DHT22;2169;49.086;9.284;2022-11-15T10:03:33;12.60;73.00
4312;DHT22;2169;49.086;9.284;2022-11-15T10:06:05;12.70;72.90
4312;DHT22;2169;49.086;9.284;2022-11-15T10:08:53;12.70;72.70
4312;DHT22;2169;49.086;9.284;2022-11-15T10:11:25;12.80;72.50
4312;DHT22;2169;49.086;9.284;2022-11-15T10:13:59;12.90;72.50
4312;DHT22;2169;49.086;9.284;2022-11-15T10:19:21;13.00;72.30
4312;DHT22;2169;49.086;9.284;2022-11-15T10:22:00;13.10;72.20
4312;DHT22;2169;49.086;9.284;2022-11-15T10:24:35;13.10;71.90
4312;DHT22;2169;49.086;9.284;2022-11-15T10:27:09;13.20;71.80
4312;DHT22;2169;49.086;9.284;2022-11-15T10:29:42;13.20;71.60
4312;DHT22;2169;49.086;9.284;2022-11-15T10:32:11;13.30;71.50
4312;DHT22;2169;49.086;9.284;2022-11-15T10:34:39;13.30;72.00
4312;DHT22;2169;49.086;9.284;2022-11-15T10:37:06;13.40;71.20
4312;DHT22;2169;49.086;9.284;2022-11-15T10:39:32;13.40;71.00
4312;DHT22;2169;49.086;9.284;2022-11-15T10:42:15;13.50;71.00
4312;DHT22;2169;49.086;9.284;2022-11-15T10:44:43;13.50;70.70
4312;DHT22;2169;49.086;9.284;2022-11-15T10:47:36;13.50;70.60
4312;DHT22;2169;49.086;9.284;2022-11-15T10:50:06;13.60;70.40
4312;DHT22;2169;49.086;9.284;2022-11-15T10:52:35;13.70;70.40
4312;DHT22;2169;49.086;9.284;2022-11-15T10:55:21;13.70;70.30
4312;DHT22;2169;49.086;9.284;2022-11-15T10:57:56;13.70;70.10
4312;DHT22;2169;49.086;9.284;2022-11-15T11:00:30;13.80;70.00
4312;DHT22;2169;49.086;9.284;2022-11-15T11:03:01;13.80;69.90
4312;DHT22;2169;49.086;9.284;2022-11-15T11:05:30;13.80;69.80
4312;DHT22;2169;49.086;9.284;2022-11-15T11:08:04;13.90;69.80
4312;DHT22;2169;49.086;9.284;2022-11-15T11:10:31;13.90;69.50
4312;DHT22;2169;49.086;9.284;2022-11-15T11:13:13;14.00;69.50
4312;DHT22;2169;49.086;9.284;2022-11-15T11:15:43;14.00;69.30
4312;DHT22;2169;49.086;9.284;2022-11-15T11:18:18;14.00;69.20
4312;DHT22;2169;49.086;9.284;2022-11-15T11:20:51;14.00;69.10
4312;DHT22;2169;49.086;9.284;2022-11-15T11:23:36;14.10;69.40
4312;DHT22;2169;49.086;9.284;2022-11-15T11:26:17;14.10;69.00
4312;DHT22;2169;49.086;9.284;2022-11-15T11:28:51;14.10;69.00
4312;DHT22;2169;49.086;9.284;2022-11-15T11:31:25;14.10;68.90
4312;DHT22;2169;49.086;9.284;2022-11-15T11:34:01;14.20;69.00
4312;DHT22;2169;49.086;9.284;2022-11-15T11:36:38;14.20;69.00
4312;DHT22;2169;49.086;9.284;2022-11-15T11:39:20;14.20;69.70
4312;DHT22;2169;49.086;9.284;2022-11-15T11:41:57;14.20;68.90
4312;DHT22;2169;49.086;9.284;2022-11-15T11:44:33;14.20;68.90
4312;DHT22;2169;49.086;9.284;2022-11-15T11:47:01;14.20;68.90
4312;DHT22;2169;49.086;9.284;2022-11-15T11:49:36;14.20;68.80
4312;DHT22;2169;49.086;9.284;2022-11-15T11:52:10;14.30;68.70
4312;DHT22;2169;49.086;9.284;2022-11-15T11:54:46;14.30;68.70
4312;DHT22;2169;49.086;9.284;2022-11-15T11:57:20;14.30;68.60
4312;DHT22;2169;49.086;9.284;2022-11-15T11:59:52;14.40;68.70
4312;DHT22;2169;49.086;9.284;2022-11-15T12:02:27;14.40;68.50
4312;DHT22;2169;49.086;9.284;2022-11-15T12:05:07;14.40;68.40
4312;DHT22;2169;49.086;9.284;2022-11-15T12:07:36;14.40;68.30
4312;DHT22;2169;49.086;9.284;2022-11-15T12:10:19;14.50;68.20
4312;DHT22;2169;49.086;9.284;2022-11-15T12:12:53;14.50;68.00
4312;DHT22;2169;49.086;9.284;2022-11-15T12:15:24;14.50;67.90
4312;DHT22;2169;49.086;9.284;2022-11-15T12:17:54;14.60;67.90
4312;DHT22;2169;49.086;9.284;2022-11-15T12:20:24;14.60;67.90
4312;DHT22;2169;49.086;9.284;2022-11-15T12:22:56;14.60;67.90
4312;DHT22;2169;49.086;9.284;2022-11-15T12:25:29;14.70;68.00
4312;DHT22;2169;49.086;9.284;2022-11-15T12:28:00;14.70;67.90
4312;DHT22;2169;49.086;9.284;2022-11-15T12:30:41;14.70;67.90
4312;DHT22;2169;49.086;9.284;2022-11-15T12:33:29;14.80;68.00
4312;DHT22;2169;49.086;9.284;2022-11-15T12:36:03;14.80;67.90
4312;DHT22;2169;49.086;9.284;2022-11-15T12:38:54;14.80;67.90
4312;DHT22;2169;49.086;9.284;2022-11-15T12:41:23;14.90;67.90
4312;DHT22;2169;49.086;9.284;2022-11-15T12:43:50;14.90;67.90
4312;DHT22;2169;49.086;9.284;2022-11-15T12:46:23;15.00;67.90
4312;DHT22;2169;49.086;9.284;2022-11-15T12:48:56;15.00;67.70
4312;DHT22;2169;49.086;9.284;2022-11-15T12:54:56;15.10;67.60
4312;DHT22;2169;49.086;9.284;2022-11-15T12:57:35;15.10;67.50
4312;DHT22;2169;49.086;9.284;2022-11-15T13:03:20;15.20;67.10
4312;DHT22;2169;49.086;9.284;2022-11-15T13:06:33;15.20;67.00
4312;DHT22;2169;49.086;9.284;2022-11-15T13:08:58;15.30;66.90
4312;DHT22;2169;49.086;9.284;2022-11-15T13:11:48;15.30;66.90
4312;DHT22;2169;49.086;9.284;2022-11-15T13:14:49;15.40;66.80
4312;DHT22;2169;49.086;9.284;2022-11-15T13:17:26;15.40;66.60
4312;DHT22;2169;49.086;9.284;2022-11-15T13:20:17;15.40;66.50
4312;DHT22;2169;49.086;9.284;2022-11-15T13:22:46;15.50;66.50
4312;DHT22;2169;49.086;9.284;2022-11-15T13:25:59;15.50;66.40
4312;DHT22;2169;49.086;9.284;2022-11-15T13:28:33;15.50;66.20
4312;DHT22;2169;49.086;9.284;2022-11-15T13:31:29;15.50;66.20
4312;DHT22;2169;49.086;9.284;2022-11-15T13:34:00;15.60;66.20
4312;DHT22;2169;49.086;9.284;2022-11-15T13:36:29;15.60;66.10
4312;DHT22;2169;49.086;9.284;2022-11-15T13:39:00;15.60;65.90
4312;DHT22;2169;49.086;9.284;2022-11-15T13:41:30;15.60;65.80
4312;DHT22;2169;49.086;9.284;2022-11-15T13:43:58;15.70;65.80
4312;DHT22;2169;49.086;9.284;2022-11-15T13:46:27;15.70;65.70
4312;DHT22;2169;49.086;9.284;2022-11-15T13:48:56;15.70;65.60
4312;DHT22;2169;49.086;9.284;2022-11-15T13:51:30;15.70;65.40
4312;DHT22;2169;49.086;9.284;2022-11-15T13:54:03;15.80;65.50
4312;DHT22;2169;49.086;9.284;2022-11-15T13:56:34;15.80;65.50
4312;DHT22;2169;49.086;9.284;2022-11-15T13:59:13;15.80;65.50
4312;DHT22;2169;49.086;9.284;2022-11-15T14:01:42;15.90;65.60
4312;DHT22;2169;49.086;9.284;2022-11-15T14:04:11;15.90;65.70
4312;DHT22;2169;49.086;9.284;2022-11-15T14:06:44;15.90;65.70
4312;DHT22;2169;49.086;9.284;2022-11-15T14:09:32;15.90;65.70
4312;DHT22;2169;49.086;9.284;2022-11-15T14:12:03;16.00;65.80
4312;DHT22;2169;49.086;9.284;2022-11-15T14:14:47;15.90;65.60
4312;DHT22;2169;49.086;9.284;2022-11-15T14:17:21;15.90;65.80
4312;DHT22;2169;49.086;9.284;2022-11-15T14:19:49;16.00;65.90
4312;DHT22;2169;49.086;9.284;2022-11-15T14:22:20;16.00;65.70
4312;DHT22;2169;49.086;9.284;2022-11-15T14:25:16;16.00;65.50
4312;DHT22;2169;49.086;9.284;2022-11-15T14:28:09;16.00;65.30
4312;DHT22;2169;49.086;9.284;2022-11-15T14:30:37;15.90;65.10
4312;DHT22;2169;49.086;9.284;2022-11-15T14:33:18;15.90;65.10
4312;DHT22;2169;49.086;9.284;2022-11-15T14:35:45;15.90;64.90
4312;DHT22;2169;49.086;9.284;2022-11-15T14:38:12;15.90;65.00
4312;DHT22;2169;49.086;9.284;2022-11-15T14:40:42;15.90;65.00
4312;DHT22;2169;49.086;9.284;2022-11-15T14:43:12;16.00;65.00
4312;DHT22;2169;49.086;9.284;2022-11-15T14:45:39;15.90;65.00
4312;DHT22;2169;49.086;9.284;2022-11-15T14:48:06;15.90;65.20
4312;DHT22;2169;49.086;9.284;2022-11-15T14:50:34;15.90;65.20
4312;DHT22;2169;49.086;9.284;2022-11-15T14:53:01;15.90;65.40
4312;DHT22;2169;49.086;9.284;2022-11-15T14:55:34;15.80;65.40
4312;DHT22;2169;49.086;9.284;2022-11-15T14:58:02;15.90;65.50
4312;DHT22;2169;49.086;9.284;2022-11-15T15:00:31;15.80;65.50
4312;DHT22;2169;49.086;9.284;2022-11-15T15:02:58;15.80;65.60
4312;DHT22;2169;49.086;9.284;2022-11-15T15:05:29;15.80;65.80
4312;DHT22;2169;49.086;9.284;2022-11-15T15:07:58;15.80;65.80
4312;DHT22;2169;49.086;9.284;2022-11-15T15:10:25;15.80;65.90
4312;DHT22;2169;49.086;9.284;2022-11-15T15:12:54;15.80;65.80
4312;DHT22;2169;49.086;9.284;2022-11-15T15:15:24;15.80;65.60
4312;DHT22;2169;49.086;9.284;2022-11-15T15:17:52;15.80;65.60
4312;DHT22;2169;49.086;9.284;2022-11-15T15:20:19;15.80;65.50
4312;DHT22;2169;49.086;9.284;2022-11-15T15:22:46;15.70;65.40
4312;DHT22;2169;49.086;9.284;2022-11-15T15:25:21;15.70;65.30
4312;DHT22;2169;49.086;9.284;2022-11-15T15:27:49;15.70;65.10
4312;DHT22;2169;49.086;9.284;2022-11-15T15:30:16;15.70;65.10
4312;DHT22;2169;49.086;9.284;2022-11-15T15:32:43;15.70;65.00
4312;DHT22;2169;49.086;9.284;2022-11-15T15:35:13;15.60;65.00
4312;DHT22;2169;49.086;9.284;2022-11-15T15:37:41;15.60;64.90
4312;DHT22;2169;49.086;9.284;2022-11-15T15:40:12;15.60;65.00
4312;DHT22;2169;49.086;9.284;2022-11-15T15:42:40;15.60;65.00
4312;DHT22;2169;49.086;9.284;2022-11-15T15:45:08;15.60;65.00
4312;DHT22;2169;49.086;9.284;2022-11-15T15:47:35;15.50;64.80
4312;DHT22;2169;49.086;9.284;2022-11-15T15:50:03;15.50;64.80
4312;DHT22;2169;49.086;9.284;2022-11-15T15:52:32;15.50;64.70
4312;DHT22;2169;49.086;9.284;2022-11-15T15:54:58;15.50;64.80
4312;DHT22;2169;49.086;9.284;2022-11-15T15:57:25;15.40;64.80
4312;DHT22;2169;49.086;9.284;2022-11-15T15:59:52;15.40;64.90
4312;DHT22;2169;49.086;9.284;2022-11-15T16:02:19;15.40;65.10
4312;DHT22;2169;49.086;9.284;2022-11-15T16:04:46;15.30;65.10
4312;DHT22;2169;49.086;9.284;2022-11-15T16:07:16;15.30;65.30
4312;DHT22;2169;49.086;9.284;2022-11-15T16:09:45;15.20;65.40
4312;DHT22;2169;49.086;9.284;2022-11-15T16:12:27;15.20;65.50
4312;DHT22;2169;49.086;9.284;2022-11-15T16:14:54;15.20;65.70
4312;DHT22;2169;49.086;9.284;2022-11-15T16:17:23;15.10;65.60
4312;DHT22;2169;49.086;9.284;2022-11-15T16:19:51;15.10;65.80
4312;DHT22;2169;49.086;9.284;2022-11-15T16:22:18;15.00;65.80
4312;DHT22;2169;49.086;9.284;2022-11-15T16:24:46;15.00;65.90
4312;DHT22;2169;49.086;9.284;2022-11-15T16:27:14;15.00;66.00
4312;DHT22;2169;49.086;9.284;2022-11-15T16:29:41;14.90;66.10
4312;DHT22;2169;49.086;9.284;2022-11-15T16:32:08;14.90;66.10
4312;DHT22;2169;49.086;9.284;2022-11-15T16:34:35;14.80;66.10
4312;DHT22;2169;49.086;9.284;2022-11-15T16:37:02;14.80;66.20
4312;DHT22;2169;49.086;9.284;2022-11-15T16:39:29;14.80;66.30
4312;DHT22;2169;49.086;9.284;2022-11-15T16:41:58;14.70;66.30